Terminal Aerodrome Forecast
Issued by NWS Sterling, VA

Home | Current Version | Previous Version | Text Only | Print | Product List | Glossary On
Versions: 1 2 3 4 5 6 7 8 9 10 11 12 13 14 15 16 17 18 19 20 21 22 23 24 25 26 27 28 29 30 31 32
000
FTUS41 KLWX 071140
TAFIAD
TAF
KIAD 071140Z 0712/0818 VRB04KT 3SM BR OVC005
      TEMPO 0712/0713 1SM BR OVC002
     FM071400 24007KT P6SM SCT020 SCT050
     FM071800 21009KT P6SM SCT060
     FM081000 VRB03KT P6SM OVC060=

USA.gov is the U.S. government's official web portal to all federal, state and local government web resources and services.